Time;durP1;ratioP1;P1;durP2;ratioP2;P2;SDS_P1;SDS_P2;PMS_P1;PMS_P2;Temp;Humidity;BMP_temperature;BMP_pressure;BME280_temperature;BME280_humidity;BME280_pressure;Samples;Min_cycle;Max_cycle;Signal;HPM_P1;HPM_P2
2022/04/16 00:01:42;;;;;;;;;;;;;;;6.17;86.62;99656.31;4994046;28;815;-57
2022/04/16 00:04:09;;;;;;;;;;;;;;;6.29;87.04;99647.81;4993884;28;981;-57
2022/04/16 00:06:36;;;;;;;;;;;;;;;6.43;86.53;99650.69;4993777;28;1058;-57
2022/04/16 00:09:03;;;;;;;;;;;;;;;6.43;85.81;99650.69;4993870;28;847;-57
2022/04/16 00:11:30;;;;;;;;;;;;;;;6.33;86.10;99649.41;4993756;28;815;-57
2022/04/16 00:13:56;;;;;;;;;;;;;;;6.34;86.90;99639.25;4993772;28;890;-57
2022/04/16 00:16:23;;;;;;;;;;;;;;;6.33;86.34;99638.44;4993651;28;1886;-57
2022/04/16 00:18:50;;;;;;;;;;;;;;;6.30;86.13;99638.41;4993655;28;851;-57
2022/04/16 00:21:17;;;;;;;;;;;;;;;6.18;86.46;99638.69;4993624;28;874;-57
2022/04/16 00:23:44;;;;;;;;;;;;;;;6.08;86.86;99634.66;4993498;28;887;-56
2022/04/16 00:26:14;;;;;;;;;;;;;;;6.19;86.59;99632.00;4992493;28;1358;-56
2022/04/16 00:28:41;;;;;;;;;;;;;;;6.25;86.55;99647.78;4993329;28;946;-57
2022/04/16 00:31:08;;;;;;;;;;;;;;;6.17;86.84;99635.16;4993387;28;803;-57
2022/04/16 00:33:35;;;;;;;;;;;;;;;6.14;86.84;99641.38;4993368;28;850;-56
2022/04/16 00:36:03;;;;;;;;;;;;;;;6.10;87.02;99640.56;4993219;28;1910;-57
2022/04/16 00:38:29;;;;;;;;;;;;;;;6.16;87.16;99633.56;4993240;28;819;-56
2022/04/16 00:40:56;;;;;;;;;;;;;;;6.18;87.02;99630.44;4993214;28;807;-56
2022/04/16 00:43:27;;;;;;;;;;;;;;;6.17;86.69;99628.88;4993194;28;823;-55
2022/04/16 00:45:54;;;;;;;;;;;;;;;6.18;87.33;99636.72;4993406;28;850;-56
2022/04/16 00:48:22;;;;;;;;;;;;;;;6.26;87.25;99634.84;4993411;28;686;-56
2022/04/16 00:50:51;;;;;;;;;;;;;;;6.28;87.22;99640.75;4993238;28;855;-56
2022/04/16 00:53:18;;;;;;;;;;;;;;;6.21;86.58;99632.44;4992957;28;911;-56
2022/04/16 00:55:46;;;;;;;;;;;;;;;6.12;87.37;99632.72;4992987;28;1911;-57
2022/04/16 00:58:12;;;;;;;;;;;;;;;5.95;87.36;99639.59;4992829;28;942;-56
2022/04/16 01:00:39;;;;;;;;;;;;;;;5.72;87.28;99636.97;4993129;28;878;-56
2022/04/16 01:03:06;;;;;;;;;;;;;;;5.50;87.77;99644.94;4992885;28;854;-56
2022/04/16 01:05:32;;;;;;;;;;;;;;;5.41;89.02;99641.66;4992916;28;874;-57
2022/04/16 01:08:02;;;;;;;;;;;;;;;5.48;89.66;99630.81;4992698;28;908;-57
2022/04/16 01:10:29;;;;;;;;;;;;;;;5.61;90.04;99634.13;4992518;28;895;-56
2022/04/16 01:12:57;;;;;;;;;;;;;;;5.68;90.12;99631.44;4992610;28;903;-57
2022/04/16 01:15:23;;;;;;;;;;;;;;;5.76;90.33;99634.25;4992603;28;1890;-57
2022/04/16 01:17:51;;;;;;;;;;;;;;;5.88;90.39;99632.06;4992628;28;854;-56
2022/04/16 01:20:18;;;;;;;;;;;;;;;5.94;89.86;99624.28;4975246;28;1373;-57
2022/04/16 01:22:45;;;;;;;;;;;;;;;6.00;89.35;99630.28;4992500;28;799;-57
2022/04/16 01:25:11;;;;;;;;;;;;;;;6.06;89.07;99636.97;4992690;28;1000;-57
2022/04/16 01:27:43;;;;;;;;;;;;;;;6.03;89.15;99632.25;4992243;28;1427;-57
2022/04/16 01:30:13;;;;;;;;;;;;;;;5.92;88.36;99634.84;4992366;28;906;-57
2022/04/16 01:32:43;;;;;;;;;;;;;;;5.65;88.17;99626.69;4975005;28;1377;-57
2022/04/16 01:35:11;;;;;;;;;;;;;;;5.50;89.25;99635.91;4992287;28;1918;-57
2022/04/16 01:37:38;;;;;;;;;;;;;;;5.52;89.90;99625.38;4992233;28;886;-57
2022/04/16 01:40:05;;;;;;;;;;;;;;;5.61;89.72;99625.88;4974751;28;1692;-57
2022/04/16 01:42:35;;;;;;;;;;;;;;;5.69;89.31;99626.75;4992298;28;803;-57
2022/04/16 01:45:05;;;;;;;;;;;;;;;5.61;88.62;99633.31;4992200;28;820;-57
2022/04/16 01:47:36;;;;;;;;;;;;;;;5.51;88.74;99627.31;4992457;28;819;-57
2022/04/16 01:50:09;;;;;;;;;;;;;;;5.47;88.30;99629.22;4992088;28;908;-57
2022/04/16 01:52:37;;;;;;;;;;;;;;;5.45;88.28;99630.75;4992122;28;906;-57
2022/04/16 01:55:04;;;;;;;;;;;;;;;5.36;87.94;99625.56;4992115;28;1890;-57
2022/04/16 01:57:31;;;;;;;;;;;;;;;5.33;88.75;99626.28;4992143;28;823;-56
2022/04/16 01:59:58;;;;;;;;;;;;;;;5.36;89.00;99630.25;4992167;28;986;-57
2022/04/16 02:02:25;;;;;;;;;;;;;;;5.29;88.45;99629.00;4992181;28;795;-57
2022/04/16 02:04:51;;;;;;;;;;;;;;;5.22;89.31;99626.16;4992038;28;981;-57
2022/04/16 02:07:18;;;;;;;;;;;;;;;5.25;88.97;99630.91;4992077;28;874;-57
2022/04/16 02:09:45;;;;;;;;;;;;;;;5.26;88.93;99626.19;4991891;28;830;-57
2022/04/16 02:12:13;;;;;;;;;;;;;;;5.35;88.96;99623.97;4992043;28;812;-57
2022/04/16 02:14:39;;;;;;;;;;;;;;;5.42;88.33;99629.56;4991939;28;1638;-57
2022/04/16 02:17:05;;;;;;;;;;;;;;;5.60;87.82;99626.25;4991891;28;1943;-57
2022/04/16 02:19:36;;;;;;;;;;;;;;;5.64;86.88;99622.38;4991971;28;827;-57
2022/04/16 02:22:03;;;;;;;;;;;;;;;5.73;87.22;99619.34;4991870;28;926;-57
2022/04/16 02:24:31;;;;;;;;;;;;;;;5.77;86.28;99620.19;4992057;28;928;-57
2022/04/16 02:26:58;;;;;;;;;;;;;;;5.78;86.43;99610.00;4991597;28;1393;-57
2022/04/16 02:29:25;;;;;;;;;;;;;;;5.73;86.02;99611.91;4992004;28;966;-57
2022/04/16 02:31:52;;;;;;;;;;;;;;;5.63;85.58;99612.59;4991843;28;807;-57
2022/04/16 02:34:19;;;;;;;;;;;;;;;5.51;85.78;99612.84;4991718;28;907;-57
2022/04/16 02:36:45;;;;;;;;;;;;;;;5.44;85.89;99607.25;4991618;28;1977;-57
2022/04/16 02:39:12;;;;;;;;;;;;;;;5.41;86.05;99610.75;4991656;28;799;-57
2022/04/16 02:41:39;;;;;;;;;;;;;;;5.35;86.38;99613.00;4991716;28;899;-57
2022/04/16 02:44:05;;;;;;;;;;;;;;;5.32;86.66;99608.28;4991674;28;855;-57
2022/04/16 02:49:16;;;;;;;;;;;;;;;5.33;86.41;99604.38;4992604;28;658;-57
2022/04/16 02:51:43;;;;;;;;;;;;;;;5.32;86.66;99603.59;4995431;28;887;-57
2022/04/16 02:54:11;;;;;;;;;;;;;;;5.32;86.76;99609.06;4995212;28;919;-57
2022/04/16 02:56:37;;;;;;;;;;;;;;;5.31;86.74;99601.19;4995209;28;1944;-57
2022/04/16 02:59:04;;;;;;;;;;;;;;;5.34;86.61;99597.72;4995181;28;874;-57
2022/04/16 03:01:31;;;;;;;;;;;;;;;5.30;86.39;99605.13;4995090;28;811;-57
2022/04/16 03:03:58;;;;;;;;;;;;;;;5.21;87.08;99608.13;4995346;28;882;-57
2022/04/16 03:06:24;;;;;;;;;;;;;;;5.15;87.32;99597.88;4995277;28;902;-57
2022/04/16 03:08:50;;;;;;;;;;;;;;;5.15;87.86;99592.41;4994871;28;827;-57
2022/04/16 03:11:17;;;;;;;;;;;;;;;5.21;88.11;99594.44;4994885;28;946;-57
2022/04/16 03:13:44;;;;;;;;;;;;;;;5.04;87.83;99590.28;4977558;28;814;-57
2022/04/16 03:18:55;;;;;;;;;;;;;;;4.86;89.89;99592.75;4994808;28;589;-57
2022/04/16 03:21:22;;;;;;;;;;;;;;;5.00;90.53;99581.22;4994835;28;857;-57
2022/04/16 03:23:49;;;;;;;;;;;;;;;5.11;90.26;99581.38;4994628;28;921;-56
2022/04/16 03:26:16;;;;;;;;;;;;;;;5.19;90.04;99582.28;4994501;28;1251;-56
2022/04/16 03:28:42;;;;;;;;;;;;;;;5.21;89.65;99583.47;4994651;28;873;-56
2022/04/16 03:31:09;;;;;;;;;;;;;;;5.03;89.26;99582.44;4994893;28;863;-56
2022/04/16 03:33:36;;;;;;;;;;;;;;;4.76;89.60;99581.66;4994764;28;866;-56
2022/04/16 03:36:03;;;;;;;;;;;;;;;4.83;91.04;99585.28;4994503;28;1961;-56
2022/04/16 03:38:31;;;;;;;;;;;;;;;5.15;90.43;99587.69;4994389;28;894;-57
2022/04/16 03:40:57;;;;;;;;;;;;;;;5.36;89.57;99589.94;4994510;28;799;-57
2022/04/16 03:43:26;;;;;;;;;;;;;;;5.51;88.85;99594.44;4994269;28;921;-57
2022/04/16 03:45:54;;;;;;;;;;;;;;;5.57;88.14;99594.88;4994488;28;978;-57
2022/04/16 03:48:21;;;;;;;;;;;;;;;5.57;87.23;99602.31;4994235;28;874;-57
2022/04/16 03:50:46;;;;;;;;;;;;;;;5.67;86.88;99590.69;4976844;28;871;-57
2022/04/16 03:53:13;;;;;;;;;;;;;;;5.80;86.06;99591.22;4994302;28;878;-57
2022/04/16 04:01:09;;;;;;;;;;;;;;;6.06;84.61;99598.56;4992834;28;633;-57
2022/04/16 04:03:36;;;;;;;;;;;;;;;6.19;84.03;99593.59;4993972;28;969;-57
2022/04/16 04:06:04;;;;;;;;;;;;;;;6.35;83.40;99599.63;4993889;28;873;-57
2022/04/16 04:08:31;;;;;;;;;;;;;;;6.53;82.51;99594.31;4993698;28;874;-57
2022/04/16 04:10:57;;;;;;;;;;;;;;;6.69;82.23;99603.03;4993732;28;918;-57
2022/04/16 04:13:24;;;;;;;;;;;;;;;6.77;82.16;99601.16;4993783;28;827;-57
2022/04/16 04:15:51;;;;;;;;;;;;;;;6.88;81.46;99604.75;4993647;28;1871;-56
2022/04/16 04:18:17;;;;;;;;;;;;;;;7.00;80.71;99611.09;4993673;28;823;-57
2022/04/16 04:20:44;;;;;;;;;;;;;;;7.15;80.36;99621.81;4993773;28;898;-57
2022/04/16 04:23:11;;;;;;;;;;;;;;;7.33;79.10;99618.38;4993582;28;858;-57
2022/04/16 04:25:37;;;;;;;;;;;;;;;7.51;78.47;99623.94;4993655;28;1366;-56
2022/04/16 04:28:04;;;;;;;;;;;;;;;7.65;77.91;99625.97;4993732;28;799;-57
2022/04/16 04:30:30;;;;;;;;;;;;;;;7.74;78.18;99629.94;4993774;28;820;-57
2022/04/16 04:32:58;;;;;;;;;;;;;;;7.81;77.35;99639.41;4993407;28;882;-57
2022/04/16 04:35:25;;;;;;;;;;;;;;;8.04;77.21;99642.63;4993224;28;1914;-57
2022/04/16 04:37:51;;;;;;;;;;;;;;;8.16;76.04;99639.50;4993189;28;862;-57
2022/04/16 04:40:18;;;;;;;;;;;;;;;8.13;76.22;99645.81;4993323;28;835;-57
2022/04/16 04:42:44;;;;;;;;;;;;;;;8.14;75.18;99647.38;4993222;28;872;-57
2022/04/16 04:45:12;;;;;;;;;;;;;;;8.12;75.27;99648.94;4993185;28;878;-57
2022/04/16 04:47:39;;;;;;;;;;;;;;;8.32;74.42;99641.09;4993139;28;857;-57
2022/04/16 04:50:07;;;;;;;;;;;;;;;8.47;73.74;99641.94;4993070;28;874;-57
2022/04/16 04:52:36;;;;;;;;;;;;;;;8.63;73.30;99645.09;4992977;28;867;-57
2022/04/16 04:55:07;;;;;;;;;;;;;;;8.75;72.94;99646.69;4992930;28;1910;-57
2022/04/16 04:57:34;;;;;;;;;;;;;;;8.84;73.17;99649.06;4993389;28;905;-57
2022/04/16 05:00:00;;;;;;;;;;;;;;;8.86;72.58;99649.44;4993158;28;878;-57
2022/04/16 05:02:27;;;;;;;;;;;;;;;8.85;72.65;99645.88;4993605;28;815;-57
2022/04/16 05:04:56;;;;;;;;;;;;;;;8.84;72.19;99649.06;4993255;28;787;-57
2022/04/16 05:07:23;;;;;;;;;;;;;;;8.77;72.34;99650.63;4992845;28;791;-57
2022/04/16 05:09:50;;;;;;;;;;;;;;;8.81;72.95;99650.59;4992968;28;858;-57
2022/04/16 05:12:17;;;;;;;;;;;;;;;9.07;72.00;99652.19;4992525;28;862;-57
2022/04/16 05:14:43;;;;;;;;;;;;;;;9.52;70.94;99649.72;4992898;28;850;-57
2022/04/16 05:17:10;;;;;;;;;;;;;;;10.13;68.11;99645.91;4992870;28;1890;-57
2022/04/16 05:19:37;;;;;;;;;;;;;;;10.45;66.40;99650.47;4992935;28;811;-57
2022/04/16 05:22:04;;;;;;;;;;;;;;;11.00;65.38;99649.66;4992841;28;1003;-57
2022/04/16 05:24:29;;;;;;;;;;;;;;;11.37;63.72;99646.13;4993230;28;920;-57
2022/04/16 05:26:56;;;;;;;;;;;;;;;11.62;61.59;99636.75;4992268;28;1215;-57
2022/04/16 05:29:24;;;;;;;;;;;;;;;12.05;61.35;99642.56;4992446;28;827;-57
2022/04/16 05:31:52;;;;;;;;;;;;;;;12.58;60.15;99634.66;4993093;28;779;-57
2022/04/16 05:34:19;;;;;;;;;;;;;;;13.17;58.56;99640.81;4992584;28;891;-57
2022/04/16 05:36:49;;;;;;;;;;;;;;;13.44;57.98;99640.72;4992492;28;1942;-57
2022/04/16 05:39:17;;;;;;;;;;;;;;;13.72;57.09;99639.41;4992258;28;888;-57
2022/04/16 05:41:43;;;;;;;;;;;;;;;13.95;56.22;99630.16;4992238;28;903;-57
2022/04/16 05:44:10;;;;;;;;;;;;;;;13.68;56.77;99633.91;4992158;28;859;-57
2022/04/16 05:46:37;;;;;;;;;;;;;;;13.69;57.67;99634.69;4974924;28;803;-57
2022/04/16 05:49:04;;;;;;;;;;;;;;;13.62;58.27;99627.28;4992267;28;843;-57
2022/04/16 05:51:31;;;;;;;;;;;;;;;13.87;57.93;99626.00;4992257;28;799;-57
2022/04/16 05:53:58;;;;;;;;;;;;;;;13.93;58.45;99632.59;4992238;28;910;-57
2022/04/16 05:56:25;;;;;;;;;;;;;;;14.14;57.58;99633.34;4974825;28;1953;-57
2022/04/16 05:58:51;;;;;;;;;;;;;;;14.12;56.74;99621.88;4992066;28;887;-57
2022/04/16 06:01:18;;;;;;;;;;;;;;;13.80;58.51;99629.69;4991963;28;907;-57
2022/04/16 06:03:45;;;;;;;;;;;;;;;13.57;58.33;99627.00;4992061;28;930;-57
2022/04/16 06:06:12;;;;;;;;;;;;;;;13.62;58.80;99618.97;4991945;28;805;-57
2022/04/16 06:08:39;;;;;;;;;;;;;;;13.98;58.76;99623.78;4992105;28;815;-57
2022/04/16 06:11:06;;;;;;;;;;;;;;;14.40;57.38;99626.00;4991924;28;926;-57
2022/04/16 06:13:32;;;;;;;;;;;;;;;14.80;57.06;99621.09;4991947;28;1076;-57
2022/04/16 06:16:00;;;;;;;;;;;;;;;15.14;56.47;99624.63;4992102;28;1886;-57
2022/04/16 06:18:27;;;;;;;;;;;;;;;15.44;56.67;99623.41;4991865;28;918;-57
2022/04/16 06:20:55;;;;;;;;;;;;;;;15.57;54.61;99620.66;4991879;28;899;-57
2022/04/16 06:23:22;;;;;;;;;;;;;;;15.25;55.19;99616.75;4991942;28;894;-57
2022/04/16 06:25:48;;;;;;;;;;;;;;;15.25;54.61;99623.09;4994812;28;1236;-57
2022/04/16 06:28:16;;;;;;;;;;;;;;;15.36;54.27;99617.25;4994510;28;851;-57
2022/04/16 06:30:43;;;;;;;;;;;;;;;15.54;55.12;99616.75;4994281;28;958;-57
2022/04/16 06:33:10;;;;;;;;;;;;;;;16.23;53.51;99613.53;4994232;28;891;-57
2022/04/16 06:35:37;;;;;;;;;;;;;;;17.11;51.70;99615.91;4994176;28;1906;-57
2022/04/16 06:38:03;;;;;;;;;;;;;;;18.02;48.83;99615.00;4994263;28;831;-57
2022/04/16 06:40:30;;;;;;;;;;;;;;;18.21;47.64;99615.88;4994241;28;1210;-55
2022/04/16 06:42:57;;;;;;;;;;;;;;;18.41;46.84;99609.88;4994336;28;918;-57
2022/04/16 06:45:23;;;;;;;;;;;;;;;18.55;46.77;99605.75;4994231;28;878;-57
2022/04/16 06:47:50;;;;;;;;;;;;;;;18.60;47.02;99613.53;4994155;28;956;-57
2022/04/16 06:50:16;;;;;;;;;;;;;;;19.16;45.74;99612.41;4994248;28;891;-57
2022/04/16 06:52:43;;;;;;;;;;;;;;;19.59;44.75;99604.13;4994266;28;922;-57
2022/04/16 06:55:10;;;;;;;;;;;;;;;19.32;46.10;99599.34;4994470;28;1886;-57
2022/04/16 06:57:36;;;;;;;;;;;;;;;20.04;43.55;99598.91;4994335;28;838;-57
2022/04/16 07:00:07;;;;;;;;;;;;;;;20.33;42.53;99598.31;4976638;28;1621;-57
2022/04/16 07:02:34;;;;;;;;;;;;;;;20.66;41.95;99589.16;4994032;28;874;-57
2022/04/16 07:05:02;;;;;;;;;;;;;;;21.15;41.96;99599.09;4993807;28;851;-57
2022/04/16 07:07:29;;;;;;;;;;;;;;;22.04;39.00;99593.56;4993820;28;906;-57
2022/04/16 07:09:57;;;;;;;;;;;;;;;21.70;39.01;99607.06;4994034;28;942;-57
2022/04/16 07:12:23;;;;;;;;;;;;;;;21.39;40.09;99599.03;4993702;28;918;-57
2022/04/16 07:14:51;;;;;;;;;;;;;;;21.38;39.46;99598.28;4993877;28;858;-57
2022/04/16 07:17:18;;;;;;;;;;;;;;;21.69;40.58;99597.06;4993509;28;1899;-57
2022/04/16 07:19:45;;;;;;;;;;;;;;;22.12;38.28;99594.72;4993919;28;1099;-57
2022/04/16 07:22:12;;;;;;;;;;;;;;;22.15;38.81;99590.16;4993632;28;960;-57
2022/04/16 07:24:41;;;;;;;;;;;;;;;22.10;37.64;99590.84;4993566;28;1046;-57
2022/04/16 07:27:08;;;;;;;;;;;;;;;22.81;37.90;99594.47;4854915;28;4041265;-57
2022/04/16 07:29:35;;;;;;;;;;;;;;;22.99;36.67;99587.75;4994684;28;819;-57
2022/04/16 07:32:02;;;;;;;;;;;;;;;22.11;36.55;99587.53;4994639;28;815;-57
2022/04/16 07:34:29;;;;;;;;;;;;;;;21.84;37.89;99594.25;4994426;28;859;-57
2022/04/16 07:36:55;;;;;;;;;;;;;;;21.92;37.14;99597.47;4994122;28;1914;-57
2022/04/16 07:39:21;;;;;;;;;;;;;;;21.88;37.28;99594.06;4994461;28;855;-57
2022/04/16 07:41:51;;;;;;;;;;;;;;;22.05;37.62;99588.72;4994270;28;1309;-57
2022/04/16 07:44:17;;;;;;;;;;;;;;;22.19;37.51;99587.91;4994303;28;903;-57
2022/04/16 07:46:44;;;;;;;;;;;;;;;22.11;37.70;99583.97;4994256;28;836;-57
2022/04/16 07:49:11;;;;;;;;;;;;;;;22.11;38.36;99583.97;4994457;28;875;-57
2022/04/16 07:51:37;;;;;;;;;;;;;;;22.74;37.81;99586.41;4994246;28;811;-57
2022/04/16 07:54:04;;;;;;;;;;;;;;;23.05;35.94;99579.41;4994116;28;804;-57
2022/04/16 07:56:31;;;;;;;;;;;;;;;23.49;35.34;99581.91;4994077;28;1886;-57
2022/04/16 07:58:58;;;;;;;;;;;;;;;23.93;34.19;99580.81;4994090;28;890;-57
2022/04/16 08:01:25;;;;;;;;;;;;;;;24.28;33.67;99574.13;4994074;28;835;-57
2022/04/16 08:03:52;;;;;;;;;;;;;;;24.31;33.54;99570.31;4993962;28;825;-57
2022/04/16 08:06:19;;;;;;;;;;;;;;;24.39;33.18;99570.63;4993959;28;890;-57
2022/04/16 08:08:45;;;;;;;;;;;;;;;24.54;32.92;99565.63;4993897;28;859;-57
2022/04/16 08:11:12;;;;;;;;;;;;;;;24.54;32.37;99551.50;4993797;28;856;-57
2022/04/16 08:13:39;;;;;;;;;;;;;;;24.16;32.62;99547.91;4993759;28;851;-57
2022/04/16 08:16:06;;;;;;;;;;;;;;;24.79;34.08;99543.38;4993653;28;1891;-57
2022/04/16 08:18:32;;;;;;;;;;;;;;;25.15;32.44;99547.34;4993675;28;910;-57
2022/04/16 08:20:58;;;;;;;;;;;;;;;25.72;31.42;99539.00;4993703;28;800;-57
2022/04/16 08:23:26;;;;;;;;;;;;;;;25.91;32.40;99539.28;4993575;28;819;-57
2022/04/16 08:25:54;;;;;;;;;;;;;;;25.49;31.78;99541.03;4993723;28;1112;-57
2022/04/16 08:28:20;;;;;;;;;;;;;;;25.51;33.73;99536.38;4993533;28;867;-57
2022/04/16 08:30:48;;;;;;;;;;;;;;;25.53;32.43;99536.66;4993543;28;891;-57
2022/04/16 08:33:16;;;;;;;;;;;;;;;25.59;33.14;99528.94;4993371;28;823;-58
2022/04/16 08:35:43;;;;;;;;;;;;;;;25.34;33.19;99533.53;4993356;28;1910;-57
2022/04/16 08:38:11;;;;;;;;;;;;;;;25.42;33.48;99528.16;4993182;28;995;-57
2022/04/16 08:40:38;;;;;;;;;;;;;;;25.60;33.72;99530.47;4993198;28;946;-57
2022/04/16 08:43:07;;;;;;;;;;;;;;;25.76;33.85;99526.13;4993234;28;882;-57
2022/04/16 08:45:34;;;;;;;;;;;;;;;25.30;32.35;99527.34;4993182;28;850;-57
2022/04/16 08:48:02;;;;;;;;;;;;;;;24.78;33.90;99531.31;4992536;28;835;-58
2022/04/16 08:50:29;;;;;;;;;;;;;;;24.64;34.11;99521.75;4993111;28;799;-57
2022/04/16 08:52:57;;;;;;;;;;;;;;;24.50;34.16;99502.94;4993073;28;913;-57
2022/04/16 08:55:24;;;;;;;;;;;;;;;24.56;34.79;99503.75;4992994;28;1952;-57
2022/04/16 08:57:53;;;;;;;;;;;;;;;24.32;35.46;99495.59;4993147;28;862;-57
2022/04/16 09:00:20;;;;;;;;;;;;;;;23.32;35.34;99497.19;4993027;28;867;-57
2022/04/16 09:02:56;;;;;;;;;;;;;;;23.18;35.97;99483.97;4992963;28;873;-57
2022/04/16 09:05:24;;;;;;;;;;;;;;;23.29;37.43;99491.75;4975655;28;867;-57
2022/04/16 09:07:52;;;;;;;;;;;;;;;23.06;37.30;99485.13;4993034;28;888;-57
2022/04/16 09:10:19;;;;;;;;;;;;;;;23.22;36.33;99485.28;4992832;28;852;-57
2022/04/16 09:12:49;;;;;;;;;;;;;;;23.44;38.97;99483.94;4992683;28;918;-57
2022/04/16 09:15:17;;;;;;;;;;;;;;;23.97;36.59;99476.19;4992659;28;1882;-57
2022/04/16 09:17:44;;;;;;;;;;;;;;;23.90;36.20;99480.25;4992804;28;854;-57
2022/04/16 09:20:12;;;;;;;;;;;;;;;23.91;36.71;99476.13;4975137;28;1676;-57
2022/04/16 09:22:39;;;;;;;;;;;;;;;24.07;40.04;99473.91;4992435;28;898;-57
2022/04/16 09:25:17;;;;;;;;;;;;;;;24.09;36.31;99468.53;4992833;28;928;-57
2022/04/16 09:27:46;;;;;;;;;;;;;;;23.76;36.11;99475.50;4991972;28;1255;-57
2022/04/16 09:30:14;;;;;;;;;;;;;;;23.55;36.38;99475.56;4992901;28;1188;-58
2022/04/16 09:32:44;;;;;;;;;;;;;;;23.59;36.25;99470.47;4992629;28;835;-58
2022/04/16 09:35:27;;;;;;;;;;;;;;;23.73;38.01;99470.84;4992583;28;876;-57
2022/04/16 09:37:57;;;;;;;;;;;;;;;23.76;35.96;99464.22;4992552;28;1272;-57
2022/04/16 09:40:25;;;;;;;;;;;;;;;23.58;35.30;99465.34;4992364;28;792;-58
2022/04/16 09:42:52;;;;;;;;;;;;;;;23.50;36.52;99472.72;4992172;28;1057;-57
2022/04/16 09:45:19;;;;;;;;;;;;;;;23.71;36.61;99471.34;4992304;28;820;-57
2022/04/16 09:47:48;;;;;;;;;;;;;;;23.73;37.31;99474.44;4992200;28;859;-57
2022/04/16 09:50:15;;;;;;;;;;;;;;;23.68;36.74;99454.66;4992136;28;1225;-57
2022/04/16 09:52:43;;;;;;;;;;;;;;;23.99;37.93;99456.69;4992281;28;845;-57
2022/04/16 09:55:10;;;;;;;;;;;;;;;24.33;36.12;99454.03;4992200;28;891;-57
2022/04/16 10:26:16;;;;;;;;;;;;;;;24.85;33.67;99448.84;5329657;23;1670;-56
2022/04/16 10:28:53;;;;;;;;;;;;;;;24.49;33.95;99446.94;4976234;28;847;-57
2022/04/16 10:31:25;;;;;;;;;;;;;;;24.62;34.71;99448.03;4976248;28;911;-57
2022/04/16 10:33:58;;;;;;;;;;;;;;;24.58;34.95;99443.88;4976154;28;962;-56
2022/04/16 10:36:26;;;;;;;;;;;;;;;24.59;33.99;99437.72;4976247;28;1883;-57
2022/04/16 10:38:53;;;;;;;;;;;;;;;24.76;36.05;99437.00;4976179;28;835;-57
2022/04/16 10:41:20;;;;;;;;;;;;;;;24.82;35.43;99447.06;4976071;28;862;-57
2022/04/16 10:43:57;;;;;;;;;;;;;;;25.02;34.52;99446.06;4976084;28;780;-57
2022/04/16 10:46:39;;;;;;;;;;;;;;;24.69;35.53;99438.28;4975911;28;964;-57
2022/04/16 10:49:10;;;;;;;;;;;;;;;24.77;35.12;99444.19;4975620;28;1898;-57
2022/04/16 10:51:36;;;;;;;;;;;;;;;25.32;34.28;99442.78;4975945;28;827;-57
2022/04/16 10:54:14;;;;;;;;;;;;;;;25.91;35.20;99443.03;4975808;28;919;-57
2022/04/16 10:57:01;;;;;;;;;;;;;;;26.56;33.92;99441.75;4976660;28;1882;-57
2022/04/16 10:59:45;;;;;;;;;;;;;;;26.80;32.79;99441.91;4975706;28;1524;-57
2022/04/16 11:02:25;;;;;;;;;;;;;;;26.74;32.01;99446.84;4975655;28;899;-57
2022/04/16 11:05:09;;;;;;;;;;;;;;;26.58;32.85;99445.63;4975561;28;910;-57
2022/04/16 11:07:37;;;;;;;;;;;;;;;26.88;31.16;99439.28;4975508;28;1171;-57
2022/04/16 11:10:04;;;;;;;;;;;;;;;26.75;30.92;99437.03;4975000;28;863;-57
2022/04/16 11:12:31;;;;;;;;;;;;;;;26.57;32.50;99432.75;4975517;28;893;-57
2022/04/16 11:14:58;;;;;;;;;;;;;;;26.78;31.77;99426.72;4975607;28;890;-57
2022/04/16 11:17:26;;;;;;;;;;;;;;;27.15;30.64;99429.06;4975285;28;1887;-57
2022/04/16 11:20:03;;;;;;;;;;;;;;;27.69;31.91;99430.41;4975554;28;812;-57
2022/04/16 11:22:30;;;;;;;;;;;;;;;27.76;29.37;99423.38;4975356;28;882;-57
2022/04/16 11:25:00;;;;;;;;;;;;;;;27.81;30.13;99423.34;4975333;28;1109;-57
2022/04/16 11:35:59;;;;;;;;;;;;;;;27.27;28.89;99419.19;4975263;28;1914;-57
2022/04/16 11:38:29;;;;;;;;;;;;;;;27.32;30.58;99416.84;4974965;28;958;-57
2022/04/16 11:40:59;;;;;;;;;;;;;;;27.53;29.70;99412.25;4974926;28;1059;-57
2022/04/16 11:43:28;;;;;;;;;;;;;;;27.96;29.95;99408.75;4975109;28;939;-57
2022/04/16 11:45:57;;;;;;;;;;;;;;;27.99;28.73;99401.22;4975139;28;947;-57
2022/04/16 11:48:24;;;;;;;;;;;;;;;28.11;27.60;99394.13;4974795;28;919;-57
2022/04/16 11:50:51;;;;;;;;;;;;;;;28.00;26.41;99391.41;4974738;28;922;-57
2022/04/16 11:53:16;;;;;;;;;;;;;;;27.77;27.28;99397.31;4974759;28;890;-57
2022/04/16 11:55:46;;;;;;;;;;;;;;;27.51;26.13;99395.00;4974729;28;1965;-57
2022/04/16 11:58:14;;;;;;;;;;;;;;;27.17;27.32;99383.16;4974661;28;942;-57
2022/04/16 12:01:00;;;;;;;;;;;;;;;26.93;26.00;99393.13;4974996;28;1013;-57
2022/04/16 12:03:36;;;;;;;;;;;;;;;26.28;24.00;99381.09;4974555;28;871;-57
2022/04/16 12:06:07;;;;;;;;;;;;;;;25.60;25.11;99386.16;4974398;28;931;-57
2022/04/16 12:08:34;;;;;;;;;;;;;;;25.66;23.93;99375.59;4974448;28;911;-57
2022/04/16 12:11:02;;;;;;;;;;;;;;;26.15;25.22;99378.06;4974483;28;795;-57
2022/04/16 12:13:37;;;;;;;;;;;;;;;26.65;26.36;99377.06;4974349;28;924;-57
2022/04/16 12:16:08;;;;;;;;;;;;;;;26.64;26.34;99374.75;4974537;28;1886;-57
2022/04/16 12:18:36;;;;;;;;;;;;;;;26.12;25.24;99370.63;4974681;28;788;-58
2022/04/16 12:21:07;;;;;;;;;;;;;;;26.04;25.03;99366.78;4974031;28;840;-57
2022/04/16 12:23:37;;;;;;;;;;;;;;;26.27;24.72;99371.06;4973733;28;854;-57
2022/04/16 12:26:05;;;;;;;;;;;;;;;26.92;25.35;99362.47;4974190;28;1272;-57
2022/04/16 12:28:52;;;;;;;;;;;;;;;27.45;25.15;99369.50;4974204;28;807;-57
2022/04/16 12:31:26;;;;;;;;;;;;;;;27.68;23.72;99370.03;4974191;28;858;-57
2022/04/16 12:33:52;;;;;;;;;;;;;;;26.95;22.82;99361.38;4956684;28;1643;-57
2022/04/16 12:36:19;;;;;;;;;;;;;;;26.85;24.79;99358.13;4973905;28;1907;-57
2022/04/16 12:38:46;;;;;;;;;;;;;;;26.95;24.26;99355.72;4973983;28;882;-58
2022/04/16 12:41:13;;;;;;;;;;;;;;;26.71;24.86;99357.19;4973889;28;852;-57
2022/04/16 12:43:43;;;;;;;;;;;;;;;26.49;24.58;99358.06;4973860;28;865;-57
2022/04/16 12:46:09;;;;;;;;;;;;;;;26.19;25.27;99355.91;4973783;28;910;-57
2022/04/16 12:48:36;;;;;;;;;;;;;;;25.86;24.90;99349.06;4973754;28;836;-57
2022/04/16 12:51:03;;;;;;;;;;;;;;;25.95;25.38;99348.03;4973759;28;795;-57
2022/04/16 12:53:30;;;;;;;;;;;;;;;26.03;24.54;99349.03;4973713;28;853;-57
2022/04/16 12:55:55;;;;;;;;;;;;;;;26.28;24.85;99349.94;4973730;28;1883;-57
2022/04/16 12:58:22;;;;;;;;;;;;;;;26.37;23.51;99354.53;4973907;28;831;-57
2022/04/16 13:00:49;;;;;;;;;;;;;;;26.74;23.81;99341.97;4973579;28;906;-57
2022/04/16 13:03:15;;;;;;;;;;;;;;;27.34;23.03;99344.06;4973582;28;811;-57
2022/04/16 13:05:42;;;;;;;;;;;;;;;27.23;22.20;99347.78;4973490;28;835;-57
2022/04/16 13:08:11;;;;;;;;;;;;;;;27.26;23.17;99337.44;4973416;28;866;-57
2022/04/16 13:10:38;;;;;;;;;;;;;;;27.68;22.21;99335.22;4973319;28;963;-57
2022/04/16 13:13:05;;;;;;;;;;;;;;;28.09;22.97;99328.56;4973670;28;847;-57
2022/04/16 13:15:32;;;;;;;;;;;;;;;28.50;22.47;99328.25;4973209;28;1891;-57
2022/04/16 13:17:59;;;;;;;;;;;;;;;28.19;22.62;99334.63;4973365;28;850;-57
2022/04/16 13:20:25;;;;;;;;;;;;;;;27.53;22.43;99332.81;4973306;28;882;-57
2022/04/16 13:22:52;;;;;;;;;;;;;;;27.49;23.75;99341.59;4973176;28;878;-57
2022/04/16 13:25:19;;;;;;;;;;;;;;;27.20;23.07;99336.69;4973233;28;1201;-57
2022/04/16 13:27:46;;;;;;;;;;;;;;;27.01;23.47;99334.56;4973403;28;792;-57
2022/04/16 13:30:12;;;;;;;;;;;;;;;27.03;23.95;99329.09;4973185;28;815;-57
2022/04/16 13:32:39;;;;;;;;;;;;;;;26.77;23.82;99332.41;4972771;28;866;-57
2022/04/16 13:35:06;;;;;;;;;;;;;;;26.27;23.73;99337.06;4973047;28;815;-57
2022/04/16 13:37:32;;;;;;;;;;;;;;;26.20;24.36;99329.13;4973150;28;1972;-57
2022/04/16 13:42:43;;;;;;;;;;;;;;;25.08;25.02;99343.53;4973298;28;713;-58
2022/04/16 13:45:11;;;;;;;;;;;;;;;25.10;24.67;99330.41;4972967;28;784;-57
2022/04/16 13:47:37;;;;;;;;;;;;;;;25.28;24.69;99337.59;4972805;28;851;-57
2022/04/16 13:50:05;;;;;;;;;;;;;;;25.35;25.15;99325.78;4972748;28;839;-57
2022/04/16 13:52:31;;;;;;;;;;;;;;;25.37;25.38;99331.69;4972802;28;831;-57
2022/04/16 13:54:58;;;;;;;;;;;;;;;25.45;24.65;99324.22;4972701;28;909;-57
2022/04/16 13:57:24;;;;;;;;;;;;;;;25.89;24.42;99329.53;4972622;28;1890;-57
2022/04/16 13:59:51;;;;;;;;;;;;;;;26.25;24.40;99328.31;4972685;28;972;-57
2022/04/16 14:02:18;;;;;;;;;;;;;;;26.42;25.23;99335.97;4972707;28;907;-57
2022/04/16 14:07:29;;;;;;;;;;;;;;;26.42;25.15;99339.56;4972732;28;630;-57